CK5 weather

CLOSED Pinchgut Lake Water Aerodrome
Pinchgut Lake, Newfoundland and Labrador, Canada

Public forecast

Using degrees Celsius for public forecast. Weather courtesy of forecast.io.

METAR (pilot weather report)

Closest report is Stephenville Airport, 27.6 nm (51.1 km) SW. Retrieved 2019/07/21 01:20 UTC (3 minutes ago):

CYJT 210120Z 21005KT 1 3/4SM BR OVC006 15/15 A2965 RMK ST8 SLP043 DENSITY ALT 500FT

TAF (pilot weather forecast)

Forecast is more than 12 hours old.

Closest forecast is Stephenville Airport, 27.6 nm (51.1 km) SW. Retrieved 2019/07/20 00:39 UTC (1 day ago):

TAF CYJT 202338Z 2100/2124 25008KT P6SM FEW020 BKN040 BKN100 TEMPO 2100/2106 FEW008 BKN020 BECMG 2101/2103 07005KT FM210600 08008KT 5SM -RA BR OVC012 TEMPO 2106/2109 P6SM NSW SCT012 OVC025 FM210900 08008KT 3SM -RA BR OVC010 BECMG 2113/2115 14010KT FM211500 14010KT 2SM -RA BR OVC006 BECMG 2116/2118 24012G22KT RMK NXT FCST BY 210600Z